createdAt,value
2022-08-29T00:01:21.318Z,19.70
2022-08-29T00:06:25.818Z,19.60
2022-08-29T00:11:28.121Z,19.10
2022-08-29T00:16:30.583Z,19.00
2022-08-29T00:21:34.249Z,19.20
2022-08-29T00:26:36.835Z,19.20
2022-08-29T00:31:39.847Z,19.30
2022-08-29T00:36:42.329Z,19.10
2022-08-29T00:41:51.588Z,19.10
2022-08-29T00:46:57.245Z,19.10
2022-08-29T00:52:07.907Z,19.30
2022-08-29T00:57:11.410Z,19.20
2022-08-29T01:02:14.317Z,19.20
2022-08-29T01:07:16.981Z,18.90
2022-08-29T01:12:21.207Z,18.70
2022-08-29T01:17:29.374Z,18.90
2022-08-29T01:22:50.808Z,19.00
2022-08-29T01:28:01.681Z,19.00
2022-08-29T01:33:04.541Z,19.00
2022-08-29T01:38:07.372Z,18.90
2022-08-29T01:43:09.873Z,19.00
2022-08-29T01:48:12.427Z,18.50
2022-08-29T01:53:15.433Z,17.80
2022-08-29T01:58:17.674Z,17.30
2022-08-29T02:03:20.034Z,16.90
2022-08-29T02:08:22.509Z,16.90
2022-08-29T02:13:25.191Z,16.90
2022-08-29T02:18:28.531Z,16.60
2022-08-29T02:23:34.369Z,16.60
2022-08-29T02:28:38.279Z,16.60
2022-08-29T02:33:40.594Z,16.50
2022-08-29T02:38:43.529Z,16.60
2022-08-29T02:43:47.240Z,16.60
2022-08-29T02:48:58.258Z,16.80
2022-08-29T02:54:04.114Z,16.50
2022-08-29T02:59:08.270Z,16.40
2022-08-29T03:04:10.562Z,15.90
2022-08-29T03:09:12.981Z,15.50
2022-08-29T03:14:16.019Z,15.60
2022-08-29T03:19:18.763Z,15.80
2022-08-29T03:24:25.736Z,16.00
2022-08-29T03:29:29.511Z,15.70
2022-08-29T03:34:33.945Z,15.90
2022-08-29T03:39:37.867Z,16.40
2022-08-29T03:44:42.282Z,16.60
2022-08-29T03:49:44.490Z,16.50
2022-08-29T03:54:46.770Z,16.30
2022-08-29T03:59:54.151Z,16.10
2022-08-29T04:05:08.734Z,16.20
2022-08-29T04:10:14.254Z,16.20
2022-08-29T04:15:17.080Z,16.40
2022-08-29T04:20:24.580Z,16.90
2022-08-29T04:25:31.169Z,17.00
2022-08-29T04:30:38.060Z,17.20
2022-08-29T04:35:40.707Z,17.20
2022-08-29T04:40:44.625Z,16.60
2022-08-29T04:45:55.363Z,16.50
2022-08-29T04:51:01.019Z,16.60
2022-08-29T04:56:09.013Z,16.70
2022-08-29T05:01:14.291Z,16.80
2022-08-29T05:06:22.423Z,16.60
2022-08-29T05:11:25.278Z,16.20
2022-08-29T05:16:29.781Z,16.20
2022-08-29T05:21:35.817Z,16.30
2022-08-29T05:26:41.847Z,16.20
2022-08-29T05:31:45.332Z,16.10
2022-08-29T05:36:47.993Z,16.50
2022-08-29T05:41:50.347Z,16.30
2022-08-29T05:46:52.681Z,16.20
2022-08-29T05:51:56.355Z,16.40
2022-08-29T05:56:58.683Z,16.80
2022-08-29T06:02:01.495Z,16.70
2022-08-29T06:07:05.160Z,16.50
2022-08-29T06:12:08.615Z,16.20
2022-08-29T06:17:11.554Z,16.00
2022-08-29T06:22:13.806Z,16.10
2022-08-29T06:27:16.075Z,15.90
2022-08-29T06:32:18.504Z,15.90
2022-08-29T06:37:20.846Z,16.00
2022-08-29T06:42:25.053Z,16.00
2022-08-29T06:47:31.341Z,16.20
2022-08-29T06:52:33.776Z,15.90
2022-08-29T06:57:44.421Z,16.10
2022-08-29T07:02:52.679Z,16.10
2022-08-29T07:07:55.304Z,16.20
2022-08-29T07:12:57.618Z,16.20
2022-08-29T07:18:00.255Z,16.40
2022-08-29T07:23:02.643Z,16.50
2022-08-29T07:28:05.609Z,16.80
2022-08-29T07:33:07.936Z,17.00
2022-08-29T07:38:10.369Z,17.30
2022-08-29T07:43:16.526Z,17.00
2022-08-29T07:48:25.586Z,17.40
2022-08-29T07:53:28.769Z,17.70
2022-08-29T07:58:31.361Z,17.80
2022-08-29T08:03:34.435Z,17.90
2022-08-29T08:08:37.013Z,18.20
2022-08-29T08:13:39.925Z,18.50
2022-08-29T08:18:43.605Z,18.60
2022-08-29T08:23:45.934Z,18.50
2022-08-29T08:28:48.734Z,18.80
2022-08-29T08:33:52.010Z,19.00
2022-08-29T08:38:55.436Z,18.90
2022-08-29T08:44:04.027Z,18.90
2022-08-29T08:49:27.141Z,19.00
2022-08-29T08:54:34.746Z,19.30
2022-08-29T08:59:43.037Z,19.20
2022-08-29T09:04:56.994Z,19.20
2022-08-29T09:10:12.922Z,19.40
2022-08-29T09:15:19.112Z,19.40
2022-08-29T09:20:28.681Z,19.50
2022-08-29T09:25:31.299Z,19.60
2022-08-29T09:30:34.381Z,19.70
2022-08-29T09:35:43.820Z,20.60
2022-08-29T09:40:51.673Z,19.80
2022-08-29T09:46:25.873Z,20.20
2022-08-29T09:51:35.041Z,20.20
2022-08-29T09:56:40.210Z,20.20
2022-08-29T10:01:42.626Z,20.30
2022-08-29T10:06:50.679Z,20.70
2022-08-29T10:12:07.857Z,20.70
2022-08-29T10:17:54.510Z,20.80
2022-08-29T10:23:09.279Z,20.80
2022-08-29T10:28:35.763Z,20.90
2022-08-29T10:34:08.059Z,21.20
2022-08-29T10:39:33.901Z,21.80
2022-08-29T10:44:54.946Z,21.70
2022-08-29T10:50:21.792Z,21.60
2022-08-29T10:55:44.961Z,21.90
2022-08-29T11:01:24.216Z,21.50
2022-08-29T11:06:32.991Z,22.10
2022-08-29T11:11:40.061Z,22.10
2022-08-29T11:16:47.548Z,22.40
2022-08-29T11:22:25.224Z,22.60
2022-08-29T11:27:30.312Z,22.60
2022-08-29T11:32:43.599Z,23.20
2022-08-29T11:38:32.830Z,23.00
2022-08-29T11:43:45.217Z,22.90
2022-08-29T11:48:55.768Z,22.50
2022-08-29T11:54:25.049Z,22.90
2022-08-29T11:59:49.336Z,22.40
2022-08-29T12:04:56.114Z,22.40
2022-08-29T12:10:02.350Z,22.20
2022-08-29T12:15:37.221Z,22.10
2022-08-29T12:20:41.917Z,22.80
2022-08-29T12:31:28.312Z,22.90
2022-08-29T12:36:34.826Z,22.70
2022-08-29T12:42:24.450Z,22.70
2022-08-29T12:47:32.559Z,22.80
2022-08-29T12:52:37.703Z,23.30
2022-08-29T12:57:45.245Z,23.50
2022-08-29T13:03:09.627Z,23.30
2022-08-29T13:08:30.507Z,23.00
2022-08-29T13:13:32.977Z,22.90
2022-08-29T13:18:53.682Z,22.70
2022-08-29T13:24:18.029Z,22.90
2022-08-29T13:29:29.558Z,22.70
2022-08-29T13:34:31.853Z,22.70
2022-08-29T13:39:45.966Z,23.40
2022-08-29T13:44:59.012Z,23.50
2022-08-29T13:50:06.031Z,23.30
2022-08-29T13:55:09.919Z,23.80
2022-08-29T14:00:13.300Z,23.60
2022-08-29T14:05:22.575Z,23.50
2022-08-29T14:10:25.130Z,23.70
2022-08-29T14:15:27.904Z,23.70
2022-08-29T14:20:30.377Z,23.60
2022-08-29T14:25:32.920Z,23.50
2022-08-29T14:30:35.367Z,23.60
2022-08-29T14:35:43.383Z,23.60
2022-08-29T14:40:46.188Z,24.00
2022-08-29T14:45:49.248Z,23.70
2022-08-29T14:50:51.797Z,23.70
2022-08-29T14:55:55.845Z,23.50
2022-08-29T15:00:58.367Z,23.90
2022-08-29T15:06:01.437Z,24.20
2022-08-29T15:11:04.000Z,24.00
2022-08-29T15:16:07.599Z,24.50
2022-08-29T15:21:10.215Z,24.40
2022-08-29T15:26:13.150Z,24.10
2022-08-29T15:31:16.214Z,24.00
2022-08-29T15:36:19.144Z,24.30
2022-08-29T15:41:21.912Z,24.30
2022-08-29T15:46:26.745Z,24.00
2022-08-29T15:51:29.454Z,24.00
2022-08-29T15:56:35.302Z,24.00
2022-08-29T16:01:48.526Z,23.70
2022-08-29T16:06:52.733Z,24.10
2022-08-29T16:11:55.351Z,24.10
2022-08-29T16:16:58.361Z,24.20
2022-08-29T16:22:00.986Z,23.90
2022-08-29T16:27:03.733Z,23.70
2022-08-29T16:32:07.683Z,23.70
2022-08-29T16:37:10.265Z,24.00
2022-08-29T16:42:12.754Z,23.70
2022-08-29T16:47:15.396Z,23.50
2022-08-29T16:52:17.902Z,23.50
2022-08-29T16:57:20.360Z,23.40
2022-08-29T17:02:23.801Z,23.30
2022-08-29T17:07:35.256Z,23.20
2022-08-29T17:12:37.716Z,23.10
2022-08-29T17:17:40.612Z,23.10
2022-08-29T17:22:43.193Z,23.00
2022-08-29T17:28:00.839Z,23.00
2022-08-29T17:33:10.687Z,23.00
2022-08-29T17:38:14.515Z,22.90
2022-08-29T17:43:18.791Z,22.80
2022-08-29T17:48:22.027Z,22.90
2022-08-29T17:53:25.171Z,22.80
2022-08-29T17:58:28.179Z,22.80
2022-08-29T18:03:30.717Z,22.90
2022-08-29T18:08:34.168Z,22.90
2022-08-29T18:13:36.614Z,22.90
2022-08-29T18:18:39.406Z,22.80
2022-08-29T18:23:42.551Z,22.70
2022-08-29T18:28:45.180Z,22.60
2022-08-29T18:34:03.372Z,22.60
2022-08-29T18:39:06.896Z,22.50
2022-08-29T18:44:10.095Z,22.60
2022-08-29T18:49:12.659Z,22.40
2022-08-29T18:54:19.057Z,22.50
2022-08-29T18:59:23.971Z,22.70
2022-08-29T19:04:26.672Z,22.60
2022-08-29T19:09:29.231Z,22.90
2022-08-29T19:14:31.755Z,22.90
2022-08-29T19:19:52.796Z,22.80
2022-08-29T19:24:57.569Z,22.90
2022-08-29T19:30:05.547Z,23.10
2022-08-29T19:35:10.993Z,22.90
2022-08-29T19:40:15.228Z,22.90
2022-08-29T19:45:20.021Z,23.20
2022-08-29T19:50:24.745Z,23.00
2022-08-29T19:55:29.138Z,22.80
2022-08-29T20:00:32.106Z,22.50
2022-08-29T20:05:35.409Z,22.40
2022-08-29T20:10:38.045Z,22.50
2022-08-29T20:15:41.322Z,22.50
2022-08-29T20:20:44.416Z,22.50
2022-08-29T20:25:47.215Z,22.40
2022-08-29T20:30:50.515Z,22.40
2022-08-29T20:36:12.114Z,22.60
2022-08-29T20:41:14.779Z,22.60
2022-08-29T20:46:24.951Z,22.40
2022-08-29T20:51:27.654Z,22.30
2022-08-29T20:56:31.135Z,22.10
2022-08-29T21:01:35.954Z,21.90
2022-08-29T21:06:38.699Z,22.00
2022-08-29T21:11:41.447Z,22.00
2022-08-29T21:16:47.306Z,22.00
2022-08-29T21:21:53.880Z,21.90
2022-08-29T21:26:57.199Z,21.90
2022-08-29T21:31:59.759Z,22.20
2022-08-29T21:37:02.197Z,22.10
2022-08-29T21:42:05.379Z,21.90
2022-08-29T21:47:09.023Z,21.80
2022-08-29T21:52:12.966Z,21.80
2022-08-29T21:57:18.476Z,21.70
2022-08-29T22:02:21.062Z,21.40
2022-08-29T22:07:23.739Z,21.30
2022-08-29T22:12:28.782Z,21.50
2022-08-29T22:17:31.855Z,21.90
2022-08-29T22:22:35.047Z,22.10
2022-08-29T22:27:37.669Z,22.20
2022-08-29T22:32:41.014Z,22.20
2022-08-29T22:37:43.635Z,22.00
2022-08-29T22:42:46.910Z,21.40
2022-08-29T22:47:49.561Z,21.60
2022-08-29T22:52:56.505Z,21.70
2022-08-29T22:58:00.387Z,21.50
2022-08-29T23:03:05.725Z,21.20
2022-08-29T23:08:08.485Z,21.30
2022-08-29T23:13:11.882Z,21.20
2022-08-29T23:18:14.388Z,21.10
2022-08-29T23:23:17.092Z,21.00
2022-08-29T23:28:19.819Z,20.90
2022-08-29T23:33:22.299Z,20.90
2022-08-29T23:38:24.971Z,20.70
2022-08-29T23:43:29.563Z,20.70
2022-08-29T23:48:39.156Z,20.70
2022-08-29T23:53:43.719Z,20.70
2022-08-29T23:58:47.465Z,20.70
